createdAt,value
2023-04-16T00:01:03.240Z,66.08
2023-04-16T00:02:27.721Z,66.07
2023-04-16T00:03:52.720Z,66.03
2023-04-16T00:05:15.335Z,66.12
2023-04-16T00:06:38.578Z,66.21
2023-04-16T00:07:41.096Z,66.26
2023-04-16T00:08:44.586Z,66.22
2023-04-16T00:09:47.576Z,66.07
2023-04-16T00:10:50.821Z,65.95
2023-04-16T00:11:53.980Z,65.93
2023-04-16T00:12:56.229Z,65.81
2023-04-16T00:13:59.408Z,65.76
2023-04-16T00:15:01.722Z,65.61
2023-04-16T00:16:05.316Z,65.53
2023-04-16T00:17:07.701Z,65.23
2023-04-16T00:18:10.856Z,65.39
2023-04-16T00:19:14.428Z,65.49
2023-04-16T00:20:17.795Z,65.27
2023-04-16T00:21:20.269Z,65.23
2023-04-16T00:22:32.405Z,65.18
2023-04-16T00:23:34.907Z,65.19
2023-04-16T00:24:40.759Z,65.18
2023-04-16T00:25:43.628Z,65.13
2023-04-16T00:26:53.510Z,64.97
2023-04-16T00:27:57.224Z,65.01
2023-04-16T00:29:05.609Z,65.00
2023-04-16T00:30:08.757Z,64.95
2023-04-16T00:31:12.898Z,65.04
2023-04-16T00:32:18.930Z,64.95
2023-04-16T00:33:22.800Z,64.84
2023-04-16T00:34:26.626Z,64.85
2023-04-16T00:35:29.862Z,64.75
2023-04-16T00:36:32.948Z,64.84
2023-04-16T00:37:36.334Z,64.59
2023-04-16T00:38:46.745Z,64.60
2023-04-16T00:39:55.026Z,64.72
2023-04-16T00:40:58.909Z,64.68
2023-04-16T00:42:02.458Z,64.54
2023-04-16T00:43:06.694Z,64.70
2023-04-16T00:44:09.479Z,64.51
2023-04-16T00:45:13.247Z,64.52
2023-04-16T00:46:16.743Z,64.50
2023-04-16T00:47:22.244Z,64.65
2023-04-16T00:48:27.948Z,64.62
2023-04-16T00:49:32.949Z,64.64
2023-04-16T00:50:35.491Z,64.52
2023-04-16T00:51:39.324Z,64.39
2023-04-16T00:52:41.767Z,64.60
2023-04-16T00:53:47.023Z,64.45
2023-04-16T00:54:49.852Z,64.48
2023-04-16T00:55:54.823Z,64.58
2023-04-16T00:57:03.679Z,64.52
2023-04-16T00:58:06.985Z,64.40
2023-04-16T00:59:10.781Z,64.50
2023-04-16T01:00:15.019Z,64.58
